Skip Navigation Links
NOAA logo - Click to go to the NOAA homepage
NOAA's National Weather Service
Alaska Aviation Weather Unit
  NWS logo - Click to go to the NWS homepage
Left Navbar Graphic     03 AKDT = 11 GMT

   
NOAA is celebrating 200 years of science, service, and stewardship. Visit the NOAA 200th celebration Web site to learn more.
USA.gov is the U.S. Government's official Web portal to all Federal, state and local government Web resources and services.
Facebook
NWS on Facebook

AAWU Home :: Display TAF Add Bookmark
TAF PABR 290908Z 2909/3006 04005KT 5SM BR BKN013
      TEMPO 2909/2912 P6SM NSW SCT013
     FM291300 33007KT P6SM SCT002 BKN025 OVC050=

PABR 290530Z 04004KT 6SM HZ BKN014 M21/M24 A2989= SPECI PABR 290530Z 04004KT 6SM HZ BKN014 M21/M24 A2989 RMK AO2 T12111244= PABR 290553Z 03004KT 5SM HZ BKN013 M21/M24 A2988= PABR 290653Z AUTO 02003KT 10SM BKN013 M21/M24 A2988= PABR 290753Z AUTO 00000KT 7SM OVC013 M22/M24 A2987= PABR 290835Z AUTO 00000KT 9SM FEW013 M22/M24 A2987= PABR 290853Z AUTO 00000KT 10SM SCT013 M22/M25 A2986= SPECI PABR 290944Z AUTO 28004KT 10SM BKN013 M22/M25 A2985 RMK AO2 T12221250 TSNO= PABR 290953Z AUTO 28003KT 10SM OVC013 M23/M26 A2985= METAR PABR 291053Z AUTO 25005KT 5SM HZ OVC014 M24/M27 A2985 RMK SLP109 I1000 T12391267 TSNO VIA AUTODIAL=
 Alaska TAF Map

NOAA's National Weather Service
Alaska Aviation Weather Unit
6930 Sand Lake Road
Anchorage, AK 99502-1845
Disclaimer
Credits
Glossary
Privacy Policy
About Us
Career Opportunities
Contact AAWU Internet Services Site last modified: April, 17th 2012